createdAt,value
2018-04-18T00:01:01.024Z,11.87
2018-04-18T00:03:34.730Z,12.03
2018-04-18T00:06:08.422Z,13.63
2018-04-18T00:08:42.021Z,12.40
2018-04-18T00:11:16.646Z,13.00
2018-04-18T00:13:50.458Z,12.77
2018-04-18T00:16:24.266Z,13.00
2018-04-18T00:18:58.070Z,12.90
2018-04-18T00:21:31.595Z,12.50
2018-04-18T00:24:05.095Z,12.67
2018-04-18T00:26:38.874Z,12.87
2018-04-18T00:29:13.474Z,11.90
2018-04-18T00:31:47.203Z,12.10
2018-04-18T00:34:20.784Z,12.20
2018-04-18T00:36:54.394Z,12.60
2018-04-18T00:39:28.308Z,12.83
2018-04-18T00:42:01.834Z,12.33
2018-04-18T00:44:35.379Z,12.50
2018-04-18T00:47:09.106Z,11.07
2018-04-18T00:49:42.918Z,12.13
2018-04-18T00:52:16.600Z,11.90
2018-04-18T00:54:50.186Z,11.90
2018-04-18T00:57:23.714Z,11.67
2018-04-18T00:59:57.330Z,10.80
2018-04-18T01:02:30.850Z,11.77
2018-04-18T01:05:04.531Z,11.07
2018-04-18T01:07:38.827Z,12.03
2018-04-18T01:10:12.483Z,11.87
2018-04-18T01:12:46.142Z,10.63
2018-04-18T01:15:19.848Z,10.93
2018-04-18T01:17:53.549Z,11.63
2018-04-18T01:20:27.971Z,10.57
2018-04-18T01:23:01.782Z,11.37
2018-04-18T01:25:35.582Z,11.57
2018-04-18T01:28:09.265Z,11.77
2018-04-18T01:30:42.987Z,11.00
2018-04-18T01:33:16.819Z,12.60
2018-04-18T01:35:50.393Z,10.77
2018-04-18T01:38:24.198Z,11.13
2018-04-18T01:40:57.902Z,10.97
2018-04-18T01:43:31.606Z,10.73
2018-04-18T01:46:06.101Z,11.53
2018-04-18T01:48:39.821Z,11.43
2018-04-18T01:51:13.641Z,11.97
2018-04-18T01:53:48.267Z,11.73
2018-04-18T01:56:22.079Z,11.73
2018-04-18T01:58:55.875Z,11.33
2018-04-18T02:01:29.679Z,10.23
2018-04-18T02:04:03.198Z,10.33
2018-04-18T02:06:36.785Z,10.53
2018-04-18T02:09:10.379Z,9.97
2018-04-18T02:11:43.948Z,10.30
2018-04-18T02:14:18.498Z,9.83
2018-04-18T02:16:52.208Z,10.17
2018-04-18T02:19:25.799Z,10.07
2018-04-18T02:21:59.707Z,9.47
2018-04-18T02:24:33.318Z,10.17
2018-04-18T02:27:07.117Z,10.60
2018-04-18T02:29:40.802Z,9.73
2018-04-18T02:32:16.030Z,10.23
2018-04-18T02:34:49.764Z,10.53
2018-04-18T02:37:23.639Z,10.07
2018-04-18T02:39:58.079Z,10.00
2018-04-18T02:42:31.794Z,10.37
2018-04-18T02:45:06.307Z,9.97
2018-04-18T02:47:40.026Z,10.53
2018-04-18T02:50:13.611Z,10.07
2018-04-18T02:52:47.228Z,10.83
2018-04-18T02:55:20.868Z,10.37
2018-04-18T02:57:54.632Z,9.83
2018-04-18T03:00:28.278Z,9.10
2018-04-18T03:03:02.646Z,10.10
2018-04-18T03:05:36.334Z,9.73
2018-04-18T03:08:10.871Z,10.00
2018-04-18T03:10:44.678Z,10.20
2018-04-18T03:13:18.379Z,9.57
2018-04-18T03:15:52.779Z,9.83
2018-04-18T03:18:26.507Z,9.63
2018-04-18T03:21:00.025Z,10.60
2018-04-18T03:23:33.518Z,9.47
2018-04-18T03:26:07.215Z,9.80
2018-04-18T03:28:40.901Z,9.60
2018-04-18T03:31:14.414Z,9.70
2018-04-18T03:33:48.095Z,9.87
2018-04-18T03:36:21.922Z,9.87
2018-04-18T03:38:56.214Z,9.23
2018-04-18T03:41:30.027Z,9.50
2018-04-18T03:44:03.739Z,9.07
2018-04-18T03:46:37.334Z,9.93
2018-04-18T03:49:10.940Z,9.93
2018-04-18T03:51:44.747Z,9.00
2018-04-18T03:54:18.554Z,9.43
2018-04-18T03:56:52.354Z,9.03
2018-04-18T03:59:25.959Z,9.40
2018-04-18T04:01:59.763Z,9.20
2018-04-18T04:04:33.254Z,9.07
2018-04-18T04:07:06.850Z,9.83
2018-04-18T04:09:40.562Z,12.43
2018-04-18T04:12:14.204Z,9.83
2018-04-18T04:14:47.971Z,8.77
2018-04-18T04:20:41.459Z,10.63
2018-04-18T04:23:27.144Z,10.70
2018-04-18T04:26:00.891Z,10.53
2018-04-18T04:28:34.430Z,10.30
2018-04-18T04:31:09.662Z,10.43
2018-04-18T04:33:43.271Z,10.27
2018-04-18T04:36:16.995Z,10.17
2018-04-18T04:38:50.674Z,11.70
2018-04-18T04:41:24.395Z,10.30
2018-04-18T04:43:58.005Z,11.10
2018-04-18T04:46:31.754Z,10.17
2018-04-18T04:49:05.290Z,10.77
2018-04-18T04:51:38.998Z,11.70
2018-04-18T04:54:12.878Z,10.87
2018-04-18T04:56:48.055Z,11.77
2018-04-18T04:59:21.857Z,11.37
2018-04-18T05:01:56.287Z,11.47
2018-04-18T05:04:30.083Z,11.30
2018-04-18T05:07:03.757Z,11.83
2018-04-18T05:09:38.295Z,11.63
2018-04-18T05:12:12.021Z,11.67
2018-04-18T05:14:45.711Z,12.30
2018-04-18T05:17:20.822Z,11.97
2018-04-18T05:19:54.554Z,12.00
2018-04-18T05:22:28.217Z,11.67
2018-04-18T05:25:01.846Z,12.80
2018-04-18T05:27:35.436Z,12.90
2018-04-18T05:30:09.250Z,12.33
2018-04-18T05:32:43.166Z,12.47
2018-04-18T05:35:16.806Z,13.07
2018-04-18T05:37:50.374Z,12.70
2018-04-18T05:40:24.466Z,13.80
2018-04-18T05:42:58.382Z,12.90
2018-04-18T05:45:31.970Z,13.30
2018-04-18T05:48:05.795Z,13.07
2018-04-18T05:50:39.606Z,13.80
2018-04-18T05:53:13.274Z,13.23
2018-04-18T05:55:47.010Z,13.03
2018-04-18T05:58:20.819Z,13.30
2018-04-18T06:00:54.349Z,13.23
2018-04-18T06:03:27.882Z,13.37
2018-04-18T06:06:01.419Z,13.40
2018-04-18T06:08:35.026Z,13.37
2018-04-18T06:11:08.753Z,12.47
2018-04-18T06:13:42.422Z,13.77
2018-04-18T06:16:15.926Z,13.60
2018-04-18T06:18:49.651Z,14.47
2018-04-18T06:21:23.430Z,13.73
2018-04-18T06:23:57.023Z,13.57
2018-04-18T06:26:30.839Z,14.63
2018-04-18T06:29:04.440Z,14.63
2018-04-18T06:31:38.954Z,14.13
2018-04-18T06:34:12.668Z,15.20
2018-04-18T06:36:46.462Z,14.73
2018-04-18T06:39:20.754Z,13.90
2018-04-18T06:41:54.582Z,13.70
2018-04-18T06:44:28.296Z,13.50
2018-04-18T06:47:01.890Z,13.50
2018-04-18T06:49:35.698Z,13.87
2018-04-18T06:52:09.506Z,12.57
2018-04-18T06:54:43.110Z,13.43
2018-04-18T06:57:16.914Z,12.73
2018-04-18T06:59:50.523Z,14.33
2018-04-18T07:02:24.224Z,13.33
2018-04-18T07:04:57.923Z,14.40
2018-04-18T07:07:31.496Z,13.40
2018-04-18T07:10:05.002Z,14.30
2018-04-18T07:12:38.610Z,14.90
2018-04-18T07:15:12.394Z,14.30
2018-04-18T07:17:46.231Z,14.40
2018-04-18T07:20:19.933Z,14.20
2018-04-18T07:22:53.806Z,13.80
2018-04-18T07:25:27.546Z,14.47
2018-04-18T07:28:01.278Z,14.50
2018-04-18T07:30:34.838Z,13.93
2018-04-18T07:33:08.444Z,14.70
2018-04-18T07:35:42.147Z,14.53
2018-04-18T07:38:15.926Z,15.10
2018-04-18T07:40:49.457Z,14.73
2018-04-18T07:43:23.103Z,13.63
2018-04-18T07:45:56.839Z,14.20
2018-04-18T07:48:30.392Z,14.53
2018-04-18T07:51:04.779Z,15.60
2018-04-18T07:53:39.114Z,15.57
2018-04-18T07:56:12.874Z,15.33
2018-04-18T07:58:46.494Z,16.07
2018-04-18T08:01:20.070Z,15.33
2018-04-18T08:03:53.693Z,15.10
2018-04-18T08:06:28.232Z,15.43
2018-04-18T08:09:01.771Z,17.00
2018-04-18T08:11:35.299Z,15.83
2018-04-18T08:14:08.894Z,16.50
2018-04-18T08:16:42.500Z,17.03
2018-04-18T08:19:16.226Z,17.77
2018-04-18T08:21:49.988Z,16.83
2018-04-18T08:24:23.470Z,18.27
2018-04-18T08:26:57.102Z,17.53
2018-04-18T08:29:30.750Z,17.90
2018-04-18T08:32:04.412Z,18.73
2018-04-18T08:34:38.041Z,18.97
2018-04-18T08:37:11.862Z,17.80
2018-04-18T08:39:45.683Z,18.50
2018-04-18T08:42:20.071Z,16.57
2018-04-18T08:44:53.878Z,17.80
2018-04-18T08:47:27.479Z,18.83
2018-04-18T08:50:01.288Z,17.80
2018-04-18T08:52:34.986Z,18.83
2018-04-18T08:55:08.693Z,19.07
2018-04-18T08:57:42.286Z,18.50
2018-04-18T09:00:16.035Z,18.43
2018-04-18T09:02:49.565Z,19.73
2018-04-18T09:05:23.262Z,19.80
2018-04-18T09:07:56.898Z,18.50
2018-04-18T09:10:30.587Z,19.57
2018-04-18T09:13:04.167Z,21.00
2018-04-18T09:15:37.870Z,19.40
2018-04-18T09:18:11.502Z,19.47
2018-04-18T09:20:45.035Z,17.73
2018-04-18T09:23:18.702Z,19.00
2018-04-18T09:25:52.594Z,18.47
2018-04-18T09:28:26.328Z,19.70
2018-04-18T09:31:00.006Z,19.07
2018-04-18T09:33:33.793Z,19.17
2018-04-18T09:36:07.438Z,17.90
2018-04-18T09:38:41.130Z,15.80
2018-04-18T09:41:14.674Z,17.00
2018-04-18T09:43:49.031Z,15.63
2018-04-18T09:46:22.963Z,14.33
2018-04-18T09:48:56.675Z,12.77
2018-04-18T09:51:30.368Z,14.40
2018-04-18T09:54:03.968Z,13.00
2018-04-18T09:56:38.487Z,12.33
2018-04-18T09:59:12.191Z,11.57
2018-04-18T10:01:45.827Z,13.30
2018-04-18T10:04:25.838Z,17.47
2018-04-18T10:06:59.682Z,16.50
2018-04-18T10:09:33.286Z,15.57
2018-04-18T10:12:07.165Z,13.10
2018-04-18T10:14:40.986Z,14.87
2018-04-18T10:17:14.765Z,17.17
2018-04-18T10:19:48.579Z,15.03
2018-04-18T10:22:23.196Z,16.67
2018-04-18T10:24:56.803Z,16.97
2018-04-18T10:27:30.615Z,17.87
2018-04-18T10:30:04.411Z,17.63
2018-04-18T10:32:39.034Z,17.47
2018-04-18T10:35:12.838Z,16.57
2018-04-18T10:37:46.366Z,17.90
2018-04-18T10:40:19.895Z,16.43
2018-04-18T10:42:53.545Z,16.37
2018-04-18T10:45:27.859Z,16.33
2018-04-18T10:48:01.474Z,15.27
2018-04-18T10:50:35.134Z,14.70
2018-04-18T10:53:08.698Z,17.17
2018-04-18T10:55:43.286Z,16.90
2018-04-18T10:58:17.091Z,17.10
2018-04-18T11:00:50.741Z,16.10
2018-04-18T11:03:24.394Z,15.83
2018-04-18T11:05:57.930Z,15.70
2018-04-18T11:08:31.583Z,15.07
2018-04-18T11:11:05.304Z,14.67
2018-04-18T11:13:38.957Z,14.40
2018-04-18T11:16:12.911Z,15.77
2018-04-18T11:18:46.720Z,13.97
2018-04-18T11:21:20.216Z,14.33
2018-04-18T11:23:53.919Z,14.20
2018-04-18T11:26:28.339Z,13.13
2018-04-18T11:29:02.147Z,14.47
2018-04-18T11:31:35.742Z,9.10
2018-04-18T11:34:10.055Z,7.63
2018-04-18T11:36:43.971Z,8.07
2018-04-18T11:39:18.592Z,9.20
2018-04-18T11:41:52.238Z,9.27
2018-04-18T11:44:26.207Z,8.17
2018-04-18T11:47:00.007Z,9.87
2018-04-18T11:49:33.534Z,11.43
2018-04-18T11:52:07.183Z,13.33
2018-04-18T11:54:40.927Z,13.47
2018-04-18T11:57:14.614Z,13.07
2018-04-18T11:59:48.246Z,12.27
2018-04-18T12:02:21.888Z,11.73
2018-04-18T12:04:56.331Z,13.27
2018-04-18T12:07:30.051Z,12.30
2018-04-18T12:10:03.856Z,12.33
2018-04-18T12:12:37.455Z,12.57
2018-04-18T12:15:11.148Z,12.73
2018-04-18T12:17:44.655Z,12.00
2018-04-18T12:20:18.256Z,12.37
2018-04-18T12:22:51.772Z,12.43
2018-04-18T12:25:25.519Z,14.37
2018-04-18T12:27:59.071Z,16.20
2018-04-18T12:30:32.879Z,14.67
2018-04-18T12:33:06.665Z,13.03
2018-04-18T12:35:41.292Z,13.10
2018-04-18T12:38:15.090Z,12.83
2018-04-18T12:40:48.762Z,13.20
2018-04-18T12:43:22.419Z,12.83
2018-04-18T12:45:56.073Z,11.27
2018-04-18T12:48:29.703Z,10.90
2018-04-18T12:51:03.715Z,13.27
2018-04-18T12:53:37.522Z,12.60
2018-04-18T12:56:11.243Z,15.60
2018-04-18T12:58:45.131Z,12.97
2018-04-18T13:01:19.550Z,13.13
2018-04-18T13:03:53.838Z,13.53
2018-04-18T13:06:27.462Z,12.50
2018-04-18T13:09:01.243Z,11.67
2018-04-18T13:11:34.882Z,11.93
2018-04-18T13:14:08.451Z,20.20
2018-04-18T13:16:42.180Z,13.30
2018-04-18T13:19:15.791Z,11.83
2018-04-18T13:21:50.097Z,13.27
2018-04-18T13:24:23.995Z,13.30
2018-04-18T13:26:57.564Z,13.33
2018-04-18T13:29:32.846Z,13.47
2018-04-18T13:32:07.367Z,12.40
2018-04-18T13:34:41.039Z,13.33
2018-04-18T13:37:14.546Z,14.73
2018-04-18T13:39:48.287Z,13.67
2018-04-18T13:42:22.721Z,13.83
2018-04-18T13:44:56.283Z,12.47
2018-04-18T13:47:29.967Z,13.57
2018-04-18T13:50:03.634Z,15.47
2018-04-18T13:52:37.211Z,17.30
2018-04-18T13:55:11.722Z,14.00
2018-04-18T13:57:45.526Z,15.77
2018-04-18T14:00:19.220Z,15.30
2018-04-18T14:02:52.930Z,15.67
2018-04-18T14:05:26.731Z,14.80
2018-04-18T14:08:00.434Z,15.20
2018-04-18T14:10:34.142Z,16.47
2018-04-18T14:13:07.943Z,16.80
2018-04-18T14:15:41.747Z,14.80
2018-04-18T14:18:15.630Z,16.60
2018-04-18T14:20:49.297Z,16.37
2018-04-18T14:23:22.967Z,17.70
2018-04-18T14:25:56.562Z,17.23
2018-04-18T14:28:31.191Z,18.67
2018-04-18T14:31:05.003Z,16.50
2018-04-18T14:33:39.487Z,13.50
2018-04-18T14:36:16.771Z,15.07
2018-04-18T14:38:50.506Z,15.27
2018-04-18T14:41:24.403Z,15.53
2018-04-18T14:43:57.940Z,15.13
2018-04-18T14:46:31.650Z,15.70
2018-04-18T14:49:05.242Z,16.80
2018-04-18T14:51:39.122Z,16.07
2018-04-18T14:54:13.414Z,16.83
2018-04-18T14:56:47.143Z,17.87
2018-04-18T14:59:20.951Z,17.80
2018-04-18T15:01:54.547Z,18.07
2018-04-18T15:04:28.361Z,16.37
2018-04-18T15:07:02.079Z,17.87
2018-04-18T15:09:35.634Z,17.30
2018-04-18T15:12:09.360Z,17.40
2018-04-18T15:14:42.870Z,17.20
2018-04-18T15:17:16.567Z,19.40
2018-04-18T15:19:51.056Z,19.30
2018-04-18T15:22:25.592Z,20.40
2018-04-18T15:24:59.279Z,19.97
2018-04-18T15:27:33.018Z,21.80
2018-04-18T15:30:06.631Z,20.97
2018-04-18T15:32:40.307Z,20.53
2018-04-18T15:35:13.919Z,18.90
2018-04-18T15:37:47.626Z,19.17
2018-04-18T15:40:22.249Z,20.20
2018-04-18T15:42:56.062Z,21.60
2018-04-18T15:45:29.866Z,20.27
2018-04-18T15:48:03.675Z,19.20
2018-04-18T15:50:37.375Z,20.07
2018-04-18T15:53:10.963Z,20.70
2018-04-18T15:55:44.582Z,20.07
2018-04-18T15:58:18.375Z,19.77
2018-04-18T16:00:52.083Z,20.17
2018-04-18T16:03:26.539Z,21.33
2018-04-18T16:06:00.310Z,22.60
2018-04-18T16:08:34.827Z,19.97
2018-04-18T16:11:08.482Z,21.17
2018-04-18T16:13:42.137Z,21.53
2018-04-18T16:16:15.937Z,20.97
2018-04-18T16:18:49.446Z,19.53
2018-04-18T16:21:23.009Z,21.10
2018-04-18T16:23:56.710Z,22.43
2018-04-18T16:26:30.254Z,22.27
2018-04-18T16:29:15.814Z,22.37
2018-04-18T16:31:49.631Z,21.83
2018-04-18T16:34:24.249Z,22.03
2018-04-18T16:36:57.846Z,21.97
2018-04-18T16:39:31.574Z,23.03
2018-04-18T16:42:05.124Z,22.73
2018-04-18T16:44:38.742Z,22.37
2018-04-18T16:47:12.454Z,25.17
2018-04-18T16:49:46.258Z,25.67
2018-04-18T16:52:19.871Z,28.50
2018-04-18T16:54:53.670Z,29.43
2018-04-18T16:57:27.362Z,29.87
2018-04-18T17:00:01.085Z,28.00
2018-04-18T17:02:34.941Z,28.50
2018-04-18T17:05:08.482Z,22.23
2018-04-18T17:07:42.100Z,20.67
2018-04-18T17:10:16.390Z,18.40
2018-04-18T17:12:50.118Z,17.97
2018-04-18T17:15:23.707Z,16.63
2018-04-18T17:17:57.314Z,18.57
2018-04-18T17:20:31.615Z,18.00
2018-04-18T17:23:05.298Z,17.67
2018-04-18T17:25:39.129Z,17.73
2018-04-18T17:28:13.755Z,18.77
2018-04-18T17:30:47.447Z,18.60
2018-04-18T17:33:20.983Z,20.07
2018-04-18T17:35:54.662Z,19.03
2018-04-18T17:38:28.200Z,19.73
2018-04-18T17:41:01.889Z,19.80
2018-04-18T17:43:35.566Z,21.63
2018-04-18T17:46:09.367Z,20.13
2018-04-18T17:48:42.994Z,22.53
2018-04-18T17:51:16.684Z,21.03
2018-04-18T17:53:50.241Z,21.87
2018-04-18T17:56:24.800Z,22.87
2018-04-18T17:58:58.602Z,25.80
2018-04-18T18:01:32.402Z,24.17
2018-04-18T18:04:06.105Z,24.63
2018-04-18T18:06:39.781Z,25.70
2018-04-18T18:09:13.411Z,27.40
2018-04-18T18:11:47.224Z,26.13
2018-04-18T18:14:20.902Z,26.17
2018-04-18T18:16:54.622Z,26.13
2018-04-18T18:19:28.231Z,25.27
2018-04-18T18:22:01.919Z,25.73
2018-04-18T18:24:35.637Z,27.67
2018-04-18T18:27:09.327Z,25.33
2018-04-18T18:29:42.946Z,26.60
2018-04-18T18:32:16.527Z,26.57
2018-04-18T18:34:51.064Z,25.47
2018-04-18T18:37:24.866Z,26.07
2018-04-18T18:39:59.292Z,26.60
2018-04-18T18:42:33.915Z,25.80
2018-04-18T18:45:07.719Z,25.83
2018-04-18T18:47:41.426Z,25.47
2018-04-18T18:50:15.123Z,26.17
2018-04-18T18:52:48.720Z,25.27
2018-04-18T18:55:22.435Z,24.47
2018-04-18T18:57:56.127Z,24.77
2018-04-18T19:00:29.798Z,25.00
2018-04-18T19:03:03.503Z,25.20
2018-04-18T19:05:37.144Z,24.40
2018-04-18T19:08:11.025Z,25.17
2018-04-18T19:10:44.486Z,24.43
2018-04-18T19:13:18.354Z,24.93
2018-04-18T19:15:52.150Z,25.03
2018-04-18T19:18:25.678Z,24.47
2018-04-18T19:20:59.359Z,24.30
2018-04-18T19:23:32.879Z,24.17
2018-04-18T19:26:06.431Z,23.13
2018-04-18T19:28:40.217Z,24.57
2018-04-18T19:31:13.762Z,25.30
2018-04-18T19:33:48.045Z,23.30
2018-04-18T19:36:21.674Z,25.23
2018-04-18T19:38:55.374Z,24.67
2018-04-18T19:41:28.956Z,25.53
2018-04-18T19:44:02.451Z,23.43
2018-04-18T19:46:36.382Z,24.77
2018-04-18T19:49:10.000Z,25.63
2018-04-18T19:51:43.795Z,23.67
2018-04-18T19:54:17.603Z,25.23
2018-04-18T19:56:51.407Z,26.00
2018-04-18T19:59:25.076Z,25.17
2018-04-18T20:01:59.642Z,25.83
2018-04-18T20:04:33.344Z,25.90
2018-04-18T20:07:07.039Z,29.77
2018-04-18T20:09:40.737Z,27.17
2018-04-18T20:12:14.437Z,26.50
2018-04-18T20:14:48.756Z,25.37
2018-04-18T20:17:22.465Z,25.57
2018-04-18T20:19:56.067Z,25.53
2018-04-18T20:22:29.908Z,27.03
2018-04-18T20:25:03.675Z,26.03
2018-04-18T20:27:37.331Z,26.17
2018-04-18T20:30:10.878Z,25.43
2018-04-18T20:32:44.683Z,25.13
2018-04-18T20:35:18.281Z,26.70
2018-04-18T20:37:52.760Z,25.47
2018-04-18T20:40:26.286Z,25.70
2018-04-18T20:42:59.994Z,24.87
2018-04-18T20:45:33.682Z,24.43
2018-04-18T20:48:07.207Z,26.13
2018-04-18T20:50:40.774Z,25.80
2018-04-18T20:53:14.313Z,24.63
2018-04-18T20:55:47.997Z,24.33
2018-04-18T20:58:21.547Z,24.90
2018-04-18T21:00:55.146Z,23.80
2018-04-18T21:03:29.128Z,24.87
2018-04-18T21:06:02.743Z,22.57
2018-04-18T21:08:36.332Z,22.53
2018-04-18T21:11:09.923Z,23.37
2018-04-18T21:13:43.647Z,22.93
2018-04-18T21:16:17.330Z,22.63
2018-04-18T21:18:51.626Z,22.70
2018-04-18T21:21:25.423Z,23.37
2018-04-18T21:23:59.152Z,24.27
2018-04-18T21:26:32.686Z,22.73
2018-04-18T21:29:06.442Z,22.20
2018-04-18T21:31:40.159Z,21.40
2018-04-18T21:34:13.650Z,21.73
2018-04-18T21:36:47.179Z,22.30
2018-04-18T21:39:20.834Z,21.13
2018-04-18T21:41:54.381Z,23.00
2018-04-18T21:44:28.774Z,21.97
2018-04-18T21:47:02.365Z,23.13
2018-04-18T21:49:36.058Z,22.33
2018-04-18T21:52:09.787Z,21.67
2018-04-18T21:54:43.354Z,21.30
2018-04-18T21:57:17.195Z,20.63
2018-04-18T21:59:51.482Z,22.03
2018-04-18T22:02:25.914Z,21.93
2018-04-18T22:04:59.631Z,21.30
2018-04-18T22:07:33.923Z,20.60
2018-04-18T22:10:07.716Z,21.03
2018-04-18T22:12:41.463Z,20.77
2018-04-18T22:15:15.139Z,20.93
2018-04-18T22:17:48.778Z,20.97
2018-04-18T22:20:22.469Z,21.30
2018-04-18T22:22:56.054Z,22.03
2018-04-18T22:25:29.661Z,21.07
2018-04-18T22:28:03.358Z,21.47
2018-04-18T22:30:37.087Z,20.63
2018-04-18T22:33:10.700Z,21.30
2018-04-18T22:35:44.474Z,21.40
2018-04-18T22:38:17.998Z,22.10
2018-04-18T22:40:51.682Z,20.73
2018-04-18T22:43:25.372Z,20.07
2018-04-18T22:45:59.082Z,21.13
2018-04-18T22:48:33.741Z,20.90
2018-04-18T22:51:07.522Z,22.00
2018-04-18T22:53:41.187Z,22.17
2018-04-18T22:56:14.927Z,22.47
2018-04-18T22:58:48.733Z,23.73
2018-04-18T23:01:22.434Z,21.67
2018-04-18T23:03:56.130Z,23.27
2018-04-18T23:06:30.627Z,21.93
2018-04-18T23:09:04.357Z,22.60
2018-04-18T23:11:38.035Z,22.60
2018-04-18T23:14:12.582Z,22.00
2018-04-18T23:16:46.394Z,22.77
2018-04-18T23:19:20.194Z,22.67
2018-04-18T23:21:54.686Z,23.03
2018-04-18T23:24:28.327Z,22.70
2018-04-18T23:27:02.004Z,22.60
2018-04-18T23:29:35.626Z,22.87
2018-04-18T23:32:09.336Z,22.77
2018-04-18T23:34:42.917Z,22.40
2018-04-18T23:37:16.547Z,22.63
2018-04-18T23:39:50.151Z,22.00
2018-04-18T23:42:24.649Z,22.07
2018-04-18T23:44:58.298Z,22.50
2018-04-18T23:47:31.838Z,22.23
2018-04-18T23:50:06.154Z,23.70
2018-04-18T23:52:39.788Z,23.23
2018-04-18T23:55:13.470Z,23.93
2018-04-18T23:57:48.102Z,22.70
